Aspe, Spain
Current Conditions -  °F | °C
As of 6:30 PM on Sunday 23 Nov 2014 (Local Time) from LEAL Reporting Station
Few Clouds Few Clouds  
Wind Chill: 68°   Ceiling: Unl
Heat Index: 68°   Visibility: 6mi
Dew Point: 59°   Wind: 9mph
Humidity: 73%   Direction: 50°NE
Pressure: 29.91"   Gusts: NA
Location:  38.35°N, 0.77°W
Report Text: LEAL 231730Z 05008KT 9999 FEW040 20/15 Q1013 NOSIG
Loading
Personal Weather Stations






























Interactive Weather Map New forecast layout! Learn more

10-Day Weather Forecast

Advertisements
Track Severe Weather on mobile